Norfolk, Virginia
Traffic Map
Current Weather Conditions
Norfolk, Virginia
Overcast
Overcast
59°
Feels Like: 59°
Wind Chill: 59° Ceiling: 7500
Heat Index: 59° Visibility: 10mi
Dew Point: 51° Wind: 7mph
Humidity: 75% Direction: 190° (S)
Pressure: 29.93in Gusts: 0mph
Raw Report DataKORF 230551Z 19006KT 10SM BKN075 OVC100 15/11 A2993 RMK AO2 SLP135 T01500106 10150 20133 56009
Traffic Incident Summary
Active as of:
Severity:
Category:
InformationThere was an issue retrieving the traffic information for this location. Please try a different location or try again shortly.
Advertisements
Track Severe Weather on mobile